Time;durP1;ratioP1;P1;durP2;ratioP2;P2;SDS_P1;SDS_P2;PMS_P1;PMS_P2;Temp;Humidity;BMP_temperature;BMP_pressure;BME280_temperature;BME280_humidity;BME280_pressure;Samples;Min_cycle;Max_cycle;Signal;HPM_P1;HPM_P2
2022/01/14 00:01:55;;;;;;;;;60.00;45.25;;;;;2.57;81.31;103573.53;5029931;28;45472;-66
2022/01/14 00:04:21;;;;;;;;;58.75;46.50;;;;;2.60;81.58;103566.31;5039542;28;45412;-66
2022/01/14 00:06:46;;;;;;;;;55.75;44.00;;;;;2.59;81.44;103563.66;5024498;28;45429;-66
2022/01/14 00:09:13;;;;;;;;;61.00;44.00;;;;;2.60;81.38;103566.31;5032928;28;45404;-65
2022/01/14 00:11:45;;;;;;;;;55.25;41.50;;;;;2.55;81.28;103561.97;5026683;28;45508;-66
2022/01/14 00:14:22;;;;;;;;;67.25;46.00;;;;;2.54;81.42;103554.81;5034914;28;45586;-65
2022/01/14 00:16:48;;;;;;;;;47.25;42.00;;;;;2.58;81.62;103557.41;5025030;28;45427;-65
2022/01/14 00:19:14;;;;;;;;;55.75;44.75;;;;;2.55;81.17;103554.78;5038431;28;45295;-66
2022/01/14 00:21:42;;;;;;;;;55.75;46.00;;;;;2.57;81.90;103550.25;5027162;28;45317;-65
2022/01/14 00:24:12;;;;;;;;;55.25;47.25;;;;;2.57;81.72;103550.25;5035027;28;45361;-66
2022/01/14 00:32:50;;;;;;;;;56.75;44.75;;;;;2.60;81.11;103555.59;5018449;28;45591;-65
2022/01/14 00:35:03;;;;;;;;;57.75;44.00;;;;;2.59;81.36;103564.53;5020863;28;45420;-66
2022/01/14 00:37:29;;;;;;;;;54.00;43.25;;;;;2.57;81.31;103562.78;5036714;28;45430;-65
2022/01/14 00:39:54;;;;;;;;;55.25;45.00;;;;;2.57;81.52;103574.41;5034701;28;45574;-66
2022/01/14 00:42:20;;;;;;;;;49.00;40.00;;;;;2.54;81.61;103560.19;5030051;28;46264;-66
2022/01/14 00:44:45;;;;;;;;;60.50;44.25;;;;;2.53;81.78;103558.41;5035111;28;45374;-65
2022/01/14 00:47:11;;;;;;;;;55.50;44.25;;;;;2.54;81.77;103557.50;5031262;28;45373;-66
2022/01/14 00:49:36;;;;;;;;;34.75;30.75;;;;;2.55;81.49;103551.22;5034193;28;45301;-66
2022/01/14 00:52:02;;;;;;;;;60.50;49.00;;;;;2.52;81.90;103543.22;5032302;28;46181;-65
2022/01/14 00:54:27;;;;;;;;;63.25;48.00;;;;;2.54;81.97;103538.72;5037312;28;45340;-65
2022/01/14 00:59:27;;;;;;;;;50.50;37.25;;;;;2.54;81.73;103541.41;5020727;28;45420;-65
2022/01/14 01:01:56;;;;;;;;;54.00;40.00;;;;;2.54;81.57;103539.59;5023079;28;45431;-66
2022/01/14 01:04:32;;;;;;;;;45.25;43.00;;;;;2.52;81.88;103541.41;5033139;28;45577;-66
2022/01/14 01:07:00;;;;;;;;;56.25;45.50;;;;;2.49;81.56;103536.09;5019962;28;45551;-66
2022/01/14 01:09:26;;;;;;;;;55.00;45.00;;;;;2.52;82.17;103540.53;5050366;28;45465;-65
2022/01/14 01:12:42;;;;;;;;;56.25;44.00;;;;;2.53;81.70;103542.31;5025212;28;45410;-65
2022/01/14 01:15:02;;;;;;;;;49.25;42.00;;;;;2.52;82.06;103532.47;5036731;28;45343;-66
2022/01/14 01:17:27;;;;;;;;;56.50;46.00;;;;;2.50;81.83;103537.88;5025683;28;45333;-66
2022/01/14 01:19:53;;;;;;;;;58.50;42.50;;;;;2.48;82.00;103541.53;5022057;28;45334;-66
2022/01/14 01:22:18;;;;;;;;;51.00;42.75;;;;;2.50;81.99;103545.91;5029761;28;45774;-65
2022/01/14 01:24:43;;;;;;;;;59.25;45.75;;;;;2.48;81.93;103541.53;5032485;28;45325;-65
2022/01/14 01:27:09;;;;;;;;;57.75;45.75;;;;;2.48;82.29;103549.56;5030714;28;45452;-65
2022/01/14 01:32:01;;;;;;;;;63.25;47.75;;;;;2.47;82.31;103537.94;5031663;28;45446;-65
2022/01/14 01:34:27;;;;;;;;;52.50;44.00;;;;;2.43;82.08;103530.84;5051406;28;45288;-65
2022/01/14 01:36:54;;;;;;;;;56.00;41.50;;;;;2.47;82.60;103535.25;5032933;28;45639;-65
2022/01/14 01:39:23;;;;;;;;;58.25;45.75;;;;;2.45;82.22;103529.03;5038198;28;45660;-66
2022/01/14 01:41:55;;;;;;;;;57.50;46.75;;;;;2.42;82.53;103539.81;5032782;28;47173;-65
2022/01/14 01:44:22;;;;;;;;;56.75;42.75;;;;;2.43;82.21;103535.34;5052640;28;45365;-65
2022/01/14 01:46:49;;;;;;;;;61.50;50.00;;;;;2.41;82.48;103539.88;5026943;28;45349;-65
2022/01/14 01:49:21;;;;;;;;;58.75;42.00;;;;;2.39;82.15;103539.00;5038952;28;45324;-66
2022/01/14 01:51:48;;;;;;;;;62.25;50.75;;;;;2.41;82.54;103550.59;5028293;28;47182;-66
2022/01/14 01:54:15;;;;;;;;;66.25;48.25;;;;;2.40;82.50;103549.72;5053781;28;45468;-65
2022/01/14 01:56:40;;;;;;;;;51.25;44.25;;;;;2.34;82.14;103542.63;5044482;28;45410;-65
2022/01/14 01:59:06;;;;;;;;;64.50;48.75;;;;;2.35;82.24;103547.09;5040002;28;45468;-66
2022/01/14 02:01:32;;;;;;;;;67.00;49.00;;;;;2.36;82.30;103539.94;5021920;28;46392;-65
2022/01/14 02:03:57;;;;;;;;;65.75;51.50;;;;;2.39;82.56;103539.88;5023491;28;45896;-66
2022/01/14 02:06:24;;;;;;;;;72.25;54.50;;;;;2.44;82.88;103531.75;5032112;28;45328;-66
2022/01/14 02:08:50;;;;;;;;;61.00;48.75;;;;;2.45;82.74;103537.09;5034309;28;45321;-66
2022/01/14 02:11:16;;;;;;;;;62.00;49.00;;;;;2.46;82.34;103536.19;5023290;28;46413;-65
2022/01/14 02:13:43;;;;;;;;;65.00;48.25;;;;;2.44;82.00;103521.00;5033811;28;45326;-66
2022/01/14 02:18:48;;;;;;;;;66.75;52.00;;;;;2.37;81.45;103516.66;5023563;28;45432;-65
2022/01/14 02:24:21;;;;;;;;;72.00;52.25;;;;;2.30;82.04;103522.16;5034952;28;45428;-65
2022/01/14 02:26:56;;;;;;;;;60.00;49.00;;;;;2.31;82.60;103520.34;5027280;28;45280;-65
2022/01/14 02:29:22;;;;;;;;;61.00;48.50;;;;;2.27;82.32;103508.78;5020003;28;45361;-65
2022/01/14 02:31:48;;;;;;;;;52.25;44.00;;;;;2.28;82.33;103510.56;5031727;28;45400;-65
2022/01/14 02:34:15;;;;;;;;;63.50;49.75;;;;;2.28;82.14;103509.66;5058103;28;45264;-66
2022/01/14 02:36:42;;;;;;;;;66.75;51.50;;;;;2.30;81.97;103508.75;5045498;28;45453;-65
2022/01/14 02:39:12;;;;;;;;;55.00;46.75;;;;;2.28;82.01;103506.97;5043776;28;45617;-65
2022/01/14 02:41:39;;;;;;;;;62.75;49.25;;;;;2.31;82.15;103513.19;5025276;28;45449;-65
2022/01/14 02:44:11;;;;;;;;;71.50;52.50;;;;;2.25;81.92;103507.06;5042401;28;45865;-65
2022/01/14 02:46:43;;;;;;;;;53.75;47.25;;;;;2.27;82.25;103500.72;5025691;28;45420;-65
2022/01/14 02:49:09;;;;;;;;;59.25;46.50;;;;;2.23;82.05;103496.34;5058916;28;45464;-65
2022/01/14 02:51:34;;;;;;;;;54.75;46.75;;;;;2.21;82.00;103498.16;5031138;28;45870;-66
2022/01/14 02:54:16;;;;;;;;;65.00;47.00;;;;;2.17;82.51;103495.59;5044560;28;45348;-65
2022/01/14 02:56:45;;;;;;;;;63.25;47.50;;;;;2.18;82.35;103503.59;5048548;28;45681;-65
2022/01/14 02:59:12;;;;;;;;;63.75;48.00;;;;;2.17;82.25;103506.31;5058532;28;45594;-65
2022/01/14 03:01:38;;;;;;;;;60.00;45.25;;;;;2.16;82.42;103499.16;5026691;28;46231;-65
2022/01/14 03:04:05;;;;;;;;;63.75;48.00;;;;;2.17;82.48;103499.16;5035978;28;45370;-65
2022/01/14 03:06:31;;;;;;;;;65.00;51.25;;;;;2.17;82.42;103496.47;5044350;28;45452;-65
2022/01/14 03:08:57;;;;;;;;;47.25;44.25;;;;;2.19;82.30;103489.25;5037674;28;45380;-65
2022/01/14 03:11:40;;;;;;;;;65.50;48.50;;;;;2.20;82.20;103479.41;5029004;28;45361;-66
2022/01/14 03:14:08;;;;;;;;;57.25;44.25;;;;;2.19;82.00;103481.22;5023515;28;45406;-65
2022/01/14 03:16:39;;;;;;;;;61.75;48.25;;;;;2.18;82.15;103474.09;5044449;28;45351;-65
2022/01/14 03:19:09;;;;;;;;;58.25;46.50;;;;;2.09;81.75;103462.66;5026272;28;45242;-65
2022/01/14 03:21:40;;;;;;;;;54.25;44.75;;;;;2.05;82.11;103461.81;5025757;28;46488;-65
2022/01/14 03:25:36;;;;;;;;;60.50;45.75;;;;;2.11;82.22;103474.25;5037538;28;45401;-65
2022/01/14 03:27:08;;;;;;;;;61.00;45.25;;;;;2.14;82.01;103475.06;5033260;28;45331;-66
2022/01/14 03:29:33;;;;;;;;;59.50;46.00;;;;;2.13;82.10;103467.91;5029116;28;45370;-65
2022/01/14 03:31:59;;;;;;;;;51.00;44.00;;;;;2.16;82.29;103470.56;5048044;28;48177;-66
2022/01/14 03:34:25;;;;;;;;;51.50;44.00;;;;;2.18;81.69;103466.06;5039547;28;45258;-65
2022/01/14 03:36:51;;;;;;;;;55.00;45.50;;;;;2.13;81.76;103462.56;5034979;28;45425;-65
2022/01/14 03:39:17;;;;;;;;;62.75;46.25;;;;;2.15;81.49;103466.09;5041905;28;45411;-66
2022/01/14 03:41:43;;;;;;;;;60.50;45.75;;;;;2.15;81.63;103460.75;5026558;28;45523;-65
2022/01/14 03:44:08;;;;;;;;;67.50;52.50;;;;;2.08;81.66;103455.50;5048782;28;45393;-67
2022/01/14 03:46:34;;;;;;;;;54.50;44.00;;;;;2.10;81.98;103462.63;5041375;28;45388;-66
2022/01/14 03:48:59;;;;;;;;;58.50;47.75;;;;;2.09;81.66;103455.50;5044316;28;45675;-67
2022/01/14 03:51:27;;;;;;;;;52.75;42.50;;;;;2.05;81.39;103464.50;5026173;28;46598;-67
2022/01/14 03:53:52;;;;;;;;;59.75;48.75;;;;;2.05;81.63;103469.84;5036751;28;45184;-67
2022/01/14 03:56:18;;;;;;;;;63.25;50.25;;;;;1.99;81.86;103463.72;5029273;28;45998;-67
2022/01/14 03:58:43;;;;;;;;;61.25;46.25;;;;;2.00;81.71;103469.06;5060726;28;45455;-67
2022/01/14 04:01:11;;;;;;;;;63.50;50.25;;;;;1.96;81.68;103453.94;5026132;28;45393;-67
2022/01/14 04:03:36;;;;;;;;;53.50;44.00;;;;;1.99;81.77;103461.91;5032885;28;45334;-66
2022/01/14 04:06:03;;;;;;;;;61.25;48.00;;;;;1.99;82.05;103453.88;5029212;28;46846;-67
2022/01/14 04:08:29;;;;;;;;;64.25;50.75;;;;;1.89;81.58;103449.59;5032569;28;45327;-67
2022/01/14 04:10:56;;;;;;;;;67.50;51.50;;;;;1.88;82.14;103463.91;5026993;28;45626;-67
2022/01/14 04:13:34;;;;;;;;;62.00;48.00;;;;;1.92;82.54;103462.94;5031554;28;45686;-67
2022/01/14 04:16:00;;;;;;;;;61.00;49.50;;;;;1.93;82.38;103459.34;5035265;28;45415;-67
2022/01/14 04:18:26;;;;;;;;;62.75;50.25;;;;;1.95;82.63;103462.91;5033238;28;45406;-67
2022/01/14 04:20:52;;;;;;;;;58.50;46.75;;;;;1.93;82.40;103462.03;5026909;28;48407;-67
2022/01/14 04:23:21;;;;;;;;;65.75;51.50;;;;;1.92;82.32;103457.59;5034010;28;45468;-66
2022/01/14 04:25:53;;;;;;;;;69.75;53.25;;;;;1.94;82.24;103455.75;5029666;28;45322;-67
2022/01/14 04:28:21;;;;;;;;;63.25;46.75;;;;;1.95;82.25;103458.44;5029302;28;45551;-66
2022/01/14 04:30:47;;;;;;;;;61.50;49.25;;;;;1.94;82.17;103461.13;5030974;28;45364;-66
2022/01/14 04:33:13;;;;;;;;;61.75;49.25;;;;;1.93;82.13;103454.88;5037924;28;45342;-66
2022/01/14 04:35:38;;;;;;;;;70.25;54.50;;;;;1.93;81.72;103445.94;5034193;28;45413;-66
2022/01/14 04:38:04;;;;;;;;;60.75;47.25;;;;;1.91;81.70;103445.97;5044441;28;45651;-66
2022/01/14 04:40:30;;;;;;;;;69.50;54.50;;;;;1.85;82.06;103437.16;5028273;28;45620;-66
2022/01/14 04:42:57;;;;;;;;;66.50;53.50;;;;;1.83;82.37;103441.66;5035651;28;45484;-66
2022/01/14 04:48:02;;;;;;;;;72.25;53.25;;;;;1.85;82.72;103445.19;5037716;28;45290;-66
2022/01/14 04:50:28;;;;;;;;;65.50;50.75;;;;;1.80;82.62;103431.00;5030164;28;47328;-66
2022/01/14 04:52:53;;;;;;;;;63.75;51.00;;;;;1.80;82.54;103436.34;5037335;28;45234;-66
2022/01/14 04:55:22;;;;;;;;;67.75;50.00;;;;;1.83;83.04;103425.56;5035890;28;45396;-66
2022/01/14 04:57:49;;;;;;;;;64.00;51.00;;;;;1.80;82.58;103425.63;5038079;28;45424;-66
2022/01/14 05:00:18;;;;;;;;;69.25;50.50;;;;;1.85;82.96;103431.78;5030304;28;46840;-66
2022/01/14 05:02:43;;;;;;;;;72.00;57.50;;;;;1.86;82.84;103425.53;5025645;28;45311;-66
2022/01/14 05:05:10;;;;;;;;;67.75;53.50;;;;;1.83;82.90;103413.06;5034068;28;45474;-66
2022/01/14 05:07:37;;;;;;;;;73.00;56.00;;;;;1.89;82.83;103420.13;5026465;28;45354;-66
2022/01/14 05:12:35;;;;;;;;;65.75;49.75;;;;;1.93;82.60;103416.47;5027862;28;45487;-67
2022/01/14 05:15:03;;;;;;;;;63.25;50.25;;;;;1.94;82.49;103413.75;5033596;28;45492;-67
2022/01/14 05:17:28;;;;;;;;;68.00;50.00;;;;;1.93;82.25;103411.09;5024477;28;45339;-66
2022/01/14 05:19:54;;;;;;;;;63.75;49.25;;;;;1.99;82.58;103408.28;5023975;28;46602;-66
2022/01/14 05:22:21;;;;;;;;;67.25;52.75;;;;;1.98;82.04;103411.88;5031343;28;45472;-67
2022/01/14 05:24:47;;;;;;;;;62.25;50.00;;;;;1.92;81.75;103407.53;5047099;28;45567;-66
2022/01/14 05:27:13;;;;;;;;;51.00;47.00;;;;;1.91;82.04;103412.91;5033189;28;45416;-66
2022/01/14 05:29:38;;;;;;;;;60.75;50.25;;;;;1.86;81.82;103409.44;5024573;28;47779;-66
2022/01/14 05:32:05;;;;;;;;;66.50;48.75;;;;;1.80;81.45;103420.28;5033686;28;45290;-66
2022/01/14 05:34:33;;;;;;;;;63.50;49.50;;;;;1.76;81.89;103423.91;5037981;28;45397;-66
2022/01/14 05:36:59;;;;;;;;;64.50;48.50;;;;;1.72;82.19;103420.41;5026561;28;45452;-66
2022/01/14 05:39:25;;;;;;;;;69.25;49.25;;;;;1.70;82.43;103418.66;5038481;28;45393;-66
2022/01/14 05:41:51;;;;;;;;;62.25;48.00;;;;;1.70;82.63;103429.38;5026547;28;45309;-66
2022/01/14 05:44:17;;;;;;;;;72.50;55.50;;;;;1.71;82.83;103439.19;5039497;28;45250;-65
2022/01/14 05:46:43;;;;;;;;;61.00;46.00;;;;;1.66;82.82;103439.28;5028711;28;45411;-65
2022/01/14 05:49:08;;;;;;;;;56.00;43.00;;;;;1.68;82.90;103436.59;5040670;28;45500;-66
2022/01/14 05:51:34;;;;;;;;;52.75;45.50;;;;;1.69;82.51;103438.31;5029276;28;45377;-66
2022/01/14 05:53:59;;;;;;;;;56.75;44.75;;;;;1.66;83.03;103427.69;5042342;28;45356;-66
2022/01/14 05:56:25;;;;;;;;;58.75;46.25;;;;;1.70;82.49;103434.75;5028034;28;45402;-66
2022/01/14 05:58:50;;;;;;;;;60.75;46.75;;;;;1.71;82.86;103431.16;5031866;28;45428;-65
2022/01/14 06:01:16;;;;;;;;;59.50;44.75;;;;;1.72;82.74;103427.56;5024458;28;45375;-65
2022/01/14 06:03:41;;;;;;;;;59.75;45.00;;;;;1.68;82.64;103425.88;5047268;28;45333;-65
2022/01/14 06:06:07;;;;;;;;;53.50;45.25;;;;;1.66;82.60;103425.88;5027766;28;46648;-67
2022/01/14 06:08:32;;;;;;;;;52.75;46.25;;;;;1.66;82.36;103430.34;5035069;28;46646;-66
2022/01/14 06:10:58;;;;;;;;;60.75;46.00;;;;;1.70;82.94;103434.75;5022045;28;45394;-65
2022/01/14 06:13:23;;;;;;;;;62.75;49.50;;;;;1.66;82.93;103420.53;5051381;28;45524;-67
2022/01/14 06:15:49;;;;;;;;;59.75;47.75;;;;;1.71;82.84;103420.44;5031867;28;45285;-66
2022/01/14 06:18:14;;;;;;;;;53.00;45.00;;;;;1.77;82.76;103425.69;5028337;28;46945;-65
2022/01/14 06:20:39;;;;;;;;;66.25;50.00;;;;;1.79;82.46;103418.50;5025505;28;45406;-65
2022/01/14 06:23:05;;;;;;;;;61.50;49.00;;;;;1.77;81.97;103425.69;5038215;28;45454;-67
2022/01/14 06:25:30;;;;;;;;;57.75;46.75;;;;;1.77;82.81;103436.41;5031944;28;45235;-66
2022/01/14 06:27:56;;;;;;;;;59.50;47.00;;;;;1.78;82.62;103427.44;5034417;28;45361;-66
2022/01/14 06:30:21;;;;;;;;;59.75;45.25;;;;;1.79;82.63;103437.25;5039867;28;45409;-66
2022/01/14 06:32:51;;;;;;;;;56.00;47.25;;;;;1.71;82.69;103425.78;5040820;28;45280;-66
2022/01/14 06:35:16;;;;;;;;;60.75;46.25;;;;;1.76;82.79;103434.63;5035096;28;45505;-66
2022/01/14 06:37:42;;;;;;;;;70.75;55.00;;;;;1.79;82.56;103439.94;5034520;28;45404;-67
2022/01/14 06:40:08;;;;;;;;;66.00;50.00;;;;;1.76;82.84;103429.25;5036900;28;45515;-67
2022/01/14 06:42:34;;;;;;;;;59.25;46.75;;;;;1.77;82.81;103428.34;5034671;28;45346;-66
2022/01/14 06:45:00;;;;;;;;;61.00;50.00;;;;;1.79;82.64;103430.13;5036754;28;45651;-66
2022/01/14 06:47:25;;;;;;;;;65.75;52.25;;;;;1.75;82.93;103425.72;5034883;28;46486;-67
2022/01/14 06:49:51;;;;;;;;;65.75;52.00;;;;;1.75;82.65;103417.69;5053976;28;45786;-66
2022/01/14 06:52:17;;;;;;;;;71.50;52.75;;;;;1.76;83.26;103416.75;5036132;28;45301;-65
2022/01/14 06:54:42;;;;;;;;;67.75;52.50;;;;;1.79;82.89;103421.19;5054207;28;45412;-66
2022/01/14 06:57:08;;;;;;;;;62.25;50.75;;;;;1.78;82.74;103422.09;5025324;28;46486;-67
2022/01/14 06:59:33;;;;;;;;;66.25;48.75;;;;;1.80;82.62;103417.59;5050739;28;45202;-67
2022/01/14 07:02:00;;;;;;;;;70.75;54.50;;;;;1.84;82.57;103419.28;5026589;28;45936;-67
2022/01/14 07:04:25;;;;;;;;;62.25;50.00;;;;;1.83;82.64;103420.22;5037083;28;45361;-67
2022/01/14 07:06:51;;;;;;;;;62.25;49.50;;;;;1.81;82.64;103416.69;5027830;28;46740;-67
2022/01/14 07:09:16;;;;;;;;;70.50;55.25;;;;;1.84;82.61;103416.63;5037949;28;45243;-67
2022/01/14 07:11:46;;;;;;;;;65.50;49.25;;;;;1.88;82.68;103429.06;5027617;28;45420;-67
2022/01/14 07:14:12;;;;;;;;;67.50;53.00;;;;;1.88;82.88;103418.34;5038536;28;45369;-67
2022/01/14 07:16:37;;;;;;;;;72.25;55.50;;;;;1.90;82.55;103419.19;5028175;28;48022;-67
2022/01/14 07:19:03;;;;;;;;;59.25;49.50;;;;;1.91;82.97;103423.63;5027235;28;45318;-67
2022/01/14 07:21:29;;;;;;;;;71.00;55.00;;;;;1.92;82.41;103412.00;5029463;28;45253;-66
2022/01/14 07:23:54;;;;;;;;;69.50;50.25;;;;;1.91;82.61;103410.22;5038120;28;45333;-66
2022/01/14 07:26:21;;;;;;;;;70.25;52.25;;;;;1.92;82.53;103401.28;5029908;28;47532;-66
2022/01/14 07:28:46;;;;;;;;;68.50;51.25;;;;;1.96;82.46;103405.69;5030439;28;45400;-66
2022/01/14 07:31:12;;;;;;;;;66.50;52.25;;;;;2.00;82.43;103401.13;5033142;28;45542;-68
2022/01/14 07:33:37;;;;;;;;;66.50;53.75;;;;;2.02;82.21;103402.00;5037393;28;45539;-67
2022/01/14 07:36:03;;;;;;;;;69.00;53.25;;;;;2.02;82.50;103410.03;5021280;28;46247;-67
2022/01/14 07:38:28;;;;;;;;;73.75;57.25;;;;;2.04;82.15;103411.81;5038110;28;45428;-67
2022/01/14 07:40:54;;;;;;;;;64.75;51.00;;;;;2.07;82.35;103419.75;5029670;28;45418;-66
2022/01/14 07:43:20;;;;;;;;;69.50;53.00;;;;;2.04;81.88;103419.84;5039151;28;45266;-67
2022/01/14 07:45:47;;;;;;;;;76.50;56.00;;;;;2.03;81.75;103412.72;5031018;28;48071;-67
2022/01/14 07:48:13;;;;;;;;;75.25;57.25;;;;;2.05;81.99;103418.91;5037493;28;46215;-67
2022/01/14 07:50:38;;;;;;;;;75.75;57.25;;;;;2.09;81.91;103415.25;5029517;28;45477;-67
2022/01/14 07:53:04;;;;;;;;;67.50;54.75;;;;;2.12;82.15;103417.00;5055066;28;45339;-67
2022/01/14 07:55:29;;;;;;;;;59.25;48.75;;;;;2.13;81.93;103410.72;5032214;28;46195;-67
2022/01/14 07:57:55;;;;;;;;;59.25;45.25;;;;;2.18;81.93;103422.25;5026108;28;45403;-66
2022/01/14 08:00:20;;;;;;;;;72.25;55.50;;;;;2.18;82.03;103424.94;5025684;28;45520;-66
2022/01/14 08:02:45;;;;;;;;;76.25;55.25;;;;;2.21;81.46;103427.53;5028888;28;45721;-67
2022/01/14 08:05:12;;;;;;;;;73.00;58.00;;;;;2.27;81.49;103430.09;5033697;28;46796;-67
2022/01/14 08:07:44;;;;;;;;;73.25;57.00;;;;;2.28;80.89;103419.34;5029450;28;45338;-67
2022/01/14 08:10:11;;;;;;;;;72.25;56.50;;;;;2.35;81.33;103425.47;5043297;28;45415;-68
2022/01/14 08:12:36;;;;;;;;;75.25;57.50;;;;;2.41;81.01;103430.72;5032068;28;45382;-67
2022/01/14 08:15:04;;;;;;;;;69.00;56.00;;;;;2.44;81.41;103421.72;5034582;28;45761;-67
2022/01/14 08:17:31;;;;;;;;;82.00;55.25;;;;;2.52;81.21;103430.50;5028545;28;45290;-67
2022/01/14 08:19:56;;;;;;;;;76.50;59.75;;;;;2.60;81.03;103437.50;5026244;28;45416;-67
2022/01/14 08:22:21;;;;;;;;;70.50;58.25;;;;;2.62;80.83;103426.72;5033569;28;45528;-67
2022/01/14 08:24:47;;;;;;;;;66.00;54.25;;;;;2.68;81.02;103434.66;5033581;28;45445;-67
2022/01/14 08:27:12;;;;;;;;;76.25;58.50;;;;;2.75;80.67;103430.91;5033943;28;45291;-67
2022/01/14 08:29:37;;;;;;;;;80.25;62.50;;;;;2.80;80.39;103429.00;5027661;28;45473;-67
2022/01/14 08:32:03;;;;;;;;;79.00;60.75;;;;;2.88;80.31;103426.16;5035217;28;45462;-67
2022/01/14 08:34:29;;;;;;;;;78.50;60.00;;;;;2.94;79.79;103429.59;5039274;28;45467;-67
2022/01/14 08:36:54;;;;;;;;;80.25;59.00;;;;;3.00;79.55;103440.19;5026521;28;45501;-66
2022/01/14 08:39:20;;;;;;;;;83.75;63.00;;;;;3.02;79.08;103441.03;5040157;28;45342;-66
2022/01/14 08:41:46;;;;;;;;;78.50;60.50;;;;;3.06;79.36;103442.75;5038498;28;45829;-66
2022/01/14 08:44:13;;;;;;;;;76.25;60.25;;;;;3.10;79.01;103439.06;5041066;28;46261;-66
2022/01/14 08:46:39;;;;;;;;;73.25;60.50;;;;;3.18;79.12;103446.06;5028496;28;45299;-66
2022/01/14 08:49:04;;;;;;;;;67.50;54.00;;;;;3.27;79.35;103443.19;5042682;28;45353;-68
2022/01/14 08:51:30;;;;;;;;;77.00;60.50;;;;;3.32;79.09;103434.09;5028877;28;45336;-67
2022/01/14 08:53:57;;;;;;;;;75.75;60.00;;;;;3.37;78.75;103440.22;5043304;28;45963;-67
2022/01/14 08:56:24;;;;;;;;;72.25;59.00;;;;;3.44;78.31;103440.94;5024005;28;45478;-67
2022/01/14 08:58:49;;;;;;;;;71.25;57.25;;;;;3.48;78.31;103435.47;5032462;28;45302;-67
2022/01/14 09:01:15;;;;;;;;;84.25;64.25;;;;;3.55;77.93;103430.84;5027038;28;45812;-67
2022/01/14 09:03:40;;;;;;;;;76.00;58.25;;;;;3.59;78.04;103437.88;5032106;28;45389;-67
2022/01/14 09:06:05;;;;;;;;;79.00;59.75;;;;;3.61;77.45;103436.06;5028578;28;45321;-67
2022/01/14 09:08:31;;;;;;;;;82.00;61.50;;;;;3.63;77.83;103434.22;5033006;28;45442;-67
2022/01/14 09:10:56;;;;;;;;;74.75;57.50;;;;;3.67;77.91;103432.31;5029077;28;45346;-67
2022/01/14 09:13:22;;;;;;;;;72.50;54.75;;;;;3.72;77.86;103427.75;5033728;28;45432;-67
2022/01/14 09:15:47;;;;;;;;;82.25;61.00;;;;;3.73;77.89;103424.97;5028183;28;45487;-67
2022/01/14 09:18:13;;;;;;;;;80.75;63.25;;;;;3.75;77.25;103417.75;5026853;28;45475;-67
2022/01/14 09:20:38;;;;;;;;;76.50;59.50;;;;;3.73;77.47;103414.22;5026900;28;45433;-67
2022/01/14 09:23:04;;;;;;;;;60.00;47.00;;;;;3.80;77.06;103426.59;5029281;28;45346;-67
2022/01/14 09:25:30;;;;;;;;;82.00;62.25;;;;;3.83;77.17;103431.91;5028400;28;45460;-67
2022/01/14 09:27:55;;;;;;;;;74.00;55.00;;;;;3.81;76.98;103427.47;5047771;28;45481;-67
2022/01/14 09:30:22;;;;;;;;;71.00;57.00;;;;;3.85;77.22;103424.69;5028707;28;45516;-67
2022/01/14 09:32:48;;;;;;;;;76.25;60.00;;;;;3.87;77.09;103420.13;5036934;28;47119;-67
2022/01/14 09:35:15;;;;;;;;;67.50;52.25;;;;;3.87;76.98;103422.81;5033056;28;45306;-67
2022/01/14 09:37:42;;;;;;;;;70.75;55.25;;;;;3.90;77.22;103420.06;5047204;28;45386;-69
2022/01/14 09:40:08;;;;;;;;;75.75;55.50;;;;;3.78;76.89;103412.31;5029370;28;45401;-68
2022/01/14 09:42:33;;;;;;;;;73.25;55.50;;;;;3.81;76.72;103422.97;5031680;28;46254;-68
2022/01/14 09:44:58;;;;;;;;;62.75;49.50;;;;;3.83;77.44;103423.84;5036071;28;45444;-68
2022/01/14 09:47:24;;;;;;;;;70.00;54.75;;;;;3.81;76.96;103428.34;5032268;28;45414;-68
2022/01/14 09:49:50;;;;;;;;;77.00;59.00;;;;;3.81;77.36;103425.66;5037658;28;45377;-69
2022/01/14 09:52:17;;;;;;;;;76.25;57.25;;;;;3.81;77.05;103422.97;5031955;28;46982;-68
2022/01/14 09:54:47;;;;;;;;;64.75;52.50;;;;;3.82;77.64;103421.19;5037649;28;45363;-67
2022/01/14 09:57:17;;;;;;;;;71.50;56.00;;;;;3.84;77.69;103422.91;5015746;28;45390;-68
2022/01/14 09:59:43;;;;;;;;;71.50;55.25;;;;;3.87;77.56;103422.81;5033502;28;45510;-68
2022/01/14 10:02:28;;;;;;;;;71.50;51.75;;;;;3.93;77.74;103429.88;5023191;28;47367;-68
2022/01/14 10:04:53;;;;;;;;;50.25;44.25;;;;;3.92;77.66;103420.03;5050212;28;46200;-68
2022/01/14 10:07:18;;;;;;;;;64.75;48.25;;;;;3.99;77.66;103428.81;5025279;28;45484;-68
2022/01/14 10:09:47;;;;;;;;;80.50;60.00;;;;;4.01;77.57;103432.34;5035498;28;46147;-68
2022/01/14 10:12:17;;;;;;;;;65.75;52.75;;;;;4.00;77.12;103438.66;5026453;28;45470;-69
2022/01/14 10:14:57;;;;;;;;;55.50;48.25;;;;;4.03;77.19;103433.16;5050917;28;45272;-69
2022/01/14 10:17:24;;;;;;;;;76.00;58.75;;;;;4.08;76.87;103428.56;5027176;28;45363;-69
2022/01/14 10:19:50;;;;;;;;;76.00;56.75;;;;;4.19;76.73;103434.53;5021068;28;45424;-69
2022/01/14 10:22:29;;;;;;;;;66.00;51.75;;;;;4.23;76.88;103429.03;5029710;28;45530;-69
2022/01/14 10:25:05;;;;;;;;;74.25;51.75;;;;;4.26;76.59;103434.31;5044790;28;45561;-69
2022/01/14 10:27:36;;;;;;;;;73.25;57.25;;;;;4.30;76.49;103427.06;5033541;28;45591;-69
2022/01/14 10:30:16;;;;;;;;;75.75;60.25;;;;;4.31;76.75;103420.72;5019858;28;45231;-66
2022/01/14 10:32:44;;;;;;;;;70.50;56.50;;;;;4.35;76.49;103430.50;5022518;28;46591;-67
2022/01/14 10:35:14;;;;;;;;;78.25;59.25;;;;;4.48;76.38;103437.28;5031556;28;45443;-67
2022/01/14 10:37:39;;;;;;;;;78.00;57.50;;;;;4.49;74.89;103428.28;5030474;28;45288;-68
2022/01/14 10:40:13;;;;;;;;;81.25;61.00;;;;;4.59;75.28;103434.31;5034926;28;45259;-67
2022/01/14 10:42:40;;;;;;;;;71.75;57.75;;;;;4.64;74.89;103435.03;5023116;28;45353;-65
2022/01/14 10:45:20;;;;;;;;;73.50;54.75;;;;;4.70;74.60;103427.66;5035494;28;45547;-65
2022/01/14 10:47:51;;;;;;;;;74.75;53.75;;;;;4.81;74.51;103424.66;5042559;28;45507;-67
2022/01/14 10:50:16;;;;;;;;;70.25;54.00;;;;;4.89;74.66;103414.53;5032010;28;45731;-67
2022/01/14 10:52:49;;;;;;;;;73.25;56.50;;;;;4.95;74.96;103410.78;5024643;28;45406;-67
2022/01/14 10:55:46;;;;;;;;;81.25;60.75;;;;;5.01;73.57;103402.50;5026715;28;45431;-67
2022/01/14 10:58:26;;;;;;;;;73.75;53.75;;;;;5.04;73.73;103389.78;5026842;28;45739;-67
2022/01/14 11:01:06;;;;;;;;;75.00;57.25;;;;;5.08;72.91;103378.00;5030991;28;45453;-67
2022/01/14 11:04:14;;;;;;;;;69.50;53.50;;;;;5.16;72.97;103375.06;5034636;28;46140;-67
2022/01/14 11:06:42;;;;;;;;;72.00;57.50;;;;;5.24;72.87;103382.91;5043491;28;45949;-68
2022/01/14 11:09:17;;;;;;;;;74.50;59.00;;;;;5.27;73.66;103375.56;5054309;28;45307;-67
2022/01/14 11:11:46;;;;;;;;;83.25;57.50;;;;;5.35;72.25;103375.31;5030258;28;45300;-67
2022/01/14 11:14:13;;;;;;;;;71.50;56.75;;;;;5.40;71.34;103381.47;5039499;28;46759;-68
2022/01/14 11:16:39;;;;;;;;;74.25;58.75;;;;;5.47;72.62;103377.63;5030191;28;45533;-68
2022/01/14 11:19:08;;;;;;;;;69.50;56.25;;;;;5.51;72.02;103375.69;5029645;28;45342;-67
2022/01/14 11:24:23;;;;;;;;;70.00;56.50;;;;;5.63;71.18;103369.88;5038607;28;45731;-66
2022/01/14 11:26:50;;;;;;;;;72.25;55.00;;;;;5.63;70.26;103362.66;5046306;28;45939;-67
2022/01/14 11:29:20;;;;;;;;;69.50;57.25;;;;;5.70;70.22;103357.94;5047728;28;45548;-66
2022/01/14 11:31:56;;;;;;;;;70.50;55.00;;;;;5.77;70.11;103363.06;5031636;28;45307;-68
2022/01/14 11:34:34;;;;;;;;;69.75;56.25;;;;;5.79;69.09;103355.81;5040471;28;45614;-68
2022/01/14 11:37:02;;;;;;;;;73.00;55.50;;;;;5.85;69.35;103350.19;5028395;28;45506;-68
2022/01/14 11:39:34;;;;;;;;;71.00;55.25;;;;;5.85;69.09;103350.19;5040757;28;45420;-68
2022/01/14 11:42:08;;;;;;;;;67.50;49.50;;;;;5.92;69.52;103350.03;5031440;28;45322;-68
2022/01/14 11:44:43;;;;;;;;;59.00;49.00;;;;;6.03;70.09;103348.69;5034014;28;46060;-68